sensor_id;sensor_type;location;lat;lon;timestamp;P1;durP1;ratioP1;P2;durP2;ratioP2
10473;SDS011;5284;50.446;7.904;2023-07-29T00:01:08;8.85;;;2.00;;
10473;SDS011;5284;50.446;7.904;2023-07-29T00:06:14;4.07;;;1.58;;
10473;SDS011;5284;50.446;7.904;2023-07-29T00:11:17;3.40;;;1.45;;
10473;SDS011;5284;50.446;7.904;2023-07-29T00:16:20;1.50;;;1.30;;
10473;SDS011;5284;50.446;7.904;2023-07-29T00:21:25;7.28;;;1.30;;
10473;SDS011;5284;50.446;7.904;2023-07-29T00:26:28;4.30;;;1.60;;
10473;SDS011;5284;50.446;7.904;2023-07-29T00:31:32;6.95;;;1.27;;
10473;SDS011;5284;50.446;7.904;2023-07-29T00:36:37;11.85;;;2.10;;
10473;SDS011;5284;50.446;7.904;2023-07-29T00:41:41;5.97;;;1.48;;
10473;SDS011;5284;50.446;7.904;2023-07-29T00:46:44;4.82;;;1.85;;
10473;SDS011;5284;50.446;7.904;2023-07-29T00:51:49;6.07;;;1.73;;
10473;SDS011;5284;50.446;7.904;2023-07-29T00:56:53;3.92;;;1.60;;
10473;SDS011;5284;50.446;7.904;2023-07-29T01:01:56;9.18;;;1.50;;
10473;SDS011;5284;50.446;7.904;2023-07-29T01:07:02;2.78;;;1.35;;
10473;SDS011;5284;50.446;7.904;2023-07-29T01:12:12;1.88;;;1.05;;
10473;SDS011;5284;50.446;7.904;2023-07-29T01:17:22;2.47;;;1.30;;
10473;SDS011;5284;50.446;7.904;2023-07-29T01:22:29;3.53;;;1.42;;
10473;SDS011;5284;50.446;7.904;2023-07-29T01:27:34;5.07;;;1.38;;
10473;SDS011;5284;50.446;7.904;2023-07-29T01:32:40;7.22;;;1.55;;
10473;SDS011;5284;50.446;7.904;2023-07-29T01:37:47;12.20;;;1.65;;
10473;SDS011;5284;50.446;7.904;2023-07-29T01:42:55;3.10;;;1.48;;
10473;SDS011;5284;50.446;7.904;2023-07-29T01:47:59;3.20;;;1.38;;
10473;SDS011;5284;50.446;7.904;2023-07-29T01:53:02;5.18;;;1.65;;
10473;SDS011;5284;50.446;7.904;2023-07-29T01:58:06;2.55;;;1.58;;
10473;SDS011;5284;50.446;7.904;2023-07-29T02:03:11;4.03;;;1.27;;
10473;SDS011;5284;50.446;7.904;2023-07-29T02:08:15;2.47;;;1.80;;
10473;SDS011;5284;50.446;7.904;2023-07-29T02:13:20;4.32;;;1.75;;
10473;SDS011;5284;50.446;7.904;2023-07-29T02:18:23;11.80;;;2.25;;
10473;SDS011;5284;50.446;7.904;2023-07-29T02:23:28;8.27;;;2.03;;
10473;SDS011;5284;50.446;7.904;2023-07-29T02:28:32;2.75;;;1.63;;
10473;SDS011;5284;50.446;7.904;2023-07-29T02:33:35;6.82;;;2.25;;
10473;SDS011;5284;50.446;7.904;2023-07-29T02:38:38;4.50;;;1.88;;
10473;SDS011;5284;50.446;7.904;2023-07-29T02:43:43;9.38;;;2.28;;
10473;SDS011;5284;50.446;7.904;2023-07-29T02:48:46;3.03;;;2.40;;
10473;SDS011;5284;50.446;7.904;2023-07-29T02:53:49;3.33;;;2.22;;
10473;SDS011;5284;50.446;7.904;2023-07-29T02:58:53;3.20;;;2.42;;
10473;SDS011;5284;50.446;7.904;2023-07-29T03:03:56;2.85;;;2.05;;
10473;SDS011;5284;50.446;7.904;2023-07-29T03:08:59;11.57;;;2.45;;
10473;SDS011;5284;50.446;7.904;2023-07-29T03:14:04;3.58;;;2.30;;
10473;SDS011;5284;50.446;7.904;2023-07-29T03:19:06;3.67;;;2.20;;
10473;SDS011;5284;50.446;7.904;2023-07-29T03:24:10;6.53;;;2.90;;
10473;SDS011;5284;50.446;7.904;2023-07-29T03:29:14;5.25;;;2.50;;
10473;SDS011;5284;50.446;7.904;2023-07-29T03:34:17;10.77;;;3.08;;
10473;SDS011;5284;50.446;7.904;2023-07-29T03:39:21;2.90;;;2.35;;
10473;SDS011;5284;50.446;7.904;2023-07-29T03:44:26;3.45;;;1.98;;
10473;SDS011;5284;50.446;7.904;2023-07-29T03:49:29;8.88;;;2.50;;
10473;SDS011;5284;50.446;7.904;2023-07-29T03:54:32;15.20;;;3.00;;
10473;SDS011;5284;50.446;7.904;2023-07-29T03:59:36;6.50;;;3.00;;
10473;SDS011;5284;50.446;7.904;2023-07-29T04:04:40;3.15;;;2.40;;
10473;SDS011;5284;50.446;7.904;2023-07-29T04:09:44;3.10;;;2.65;;
10473;SDS011;5284;50.446;7.904;2023-07-29T04:14:48;6.60;;;2.80;;
10473;SDS011;5284;50.446;7.904;2023-07-29T04:19:51;12.10;;;2.42;;
10473;SDS011;5284;50.446;7.904;2023-07-29T04:24:57;3.42;;;2.47;;
10473;SDS011;5284;50.446;7.904;2023-07-29T04:30:01;12.20;;;2.45;;
10473;SDS011;5284;50.446;7.904;2023-07-29T04:35:04;8.52;;;2.55;;
10473;SDS011;5284;50.446;7.904;2023-07-29T04:40:10;11.13;;;2.63;;
10473;SDS011;5284;50.446;7.904;2023-07-29T04:45:14;11.68;;;3.33;;
10473;SDS011;5284;50.446;7.904;2023-07-29T04:50:18;11.88;;;2.42;;
10473;SDS011;5284;50.446;7.904;2023-07-29T04:55:21;9.07;;;2.50;;
10473;SDS011;5284;50.446;7.904;2023-07-29T05:00:26;10.88;;;2.63;;
10473;SDS011;5284;50.446;7.904;2023-07-29T05:05:29;6.07;;;2.22;;
10473;SDS011;5284;50.446;7.904;2023-07-29T05:10:34;5.32;;;1.98;;
10473;SDS011;5284;50.446;7.904;2023-07-29T05:15:41;3.67;;;2.15;;
10473;SDS011;5284;50.446;7.904;2023-07-29T05:20:43;7.97;;;2.08;;
10473;SDS011;5284;50.446;7.904;2023-07-29T05:25:47;2.88;;;2.35;;
10473;SDS011;5284;50.446;7.904;2023-07-29T05:30:51;3.33;;;1.95;;
10473;SDS011;5284;50.446;7.904;2023-07-29T05:35:54;7.20;;;2.70;;
10473;SDS011;5284;50.446;7.904;2023-07-29T05:40:57;4.93;;;1.88;;
10473;SDS011;5284;50.446;7.904;2023-07-29T05:46:02;4.35;;;1.55;;
10473;SDS011;5284;50.446;7.904;2023-07-29T05:51:05;7.30;;;1.50;;
10473;SDS011;5284;50.446;7.904;2023-07-29T05:56:09;6.22;;;1.80;;
10473;SDS011;5284;50.446;7.904;2023-07-29T06:01:14;5.78;;;1.98;;
10473;SDS011;5284;50.446;7.904;2023-07-29T06:06:17;3.30;;;1.90;;
10473;SDS011;5284;50.446;7.904;2023-07-29T06:11:20;17.13;;;2.58;;
10473;SDS011;5284;50.446;7.904;2023-07-29T06:16:25;9.00;;;1.92;;
10473;SDS011;5284;50.446;7.904;2023-07-29T06:21:29;2.63;;;2.10;;
10473;SDS011;5284;50.446;7.904;2023-07-29T06:26:32;2.67;;;1.92;;
10473;SDS011;5284;50.446;7.904;2023-07-29T06:31:39;2.65;;;1.90;;
10473;SDS011;5284;50.446;7.904;2023-07-29T06:36:42;4.25;;;1.55;;
10473;SDS011;5284;50.446;7.904;2023-07-29T06:41:47;2.85;;;1.85;;
10473;SDS011;5284;50.446;7.904;2023-07-29T06:46:53;3.45;;;1.73;;
10473;SDS011;5284;50.446;7.904;2023-07-29T06:51:56;2.38;;;1.90;;
10473;SDS011;5284;50.446;7.904;2023-07-29T06:56:59;3.67;;;2.08;;
10473;SDS011;5284;50.446;7.904;2023-07-29T07:02:04;2.17;;;1.80;;
10473;SDS011;5284;50.446;7.904;2023-07-29T07:07:07;5.55;;;1.85;;
10473;SDS011;5284;50.446;7.904;2023-07-29T07:12:11;9.82;;;1.67;;
10473;SDS011;5284;50.446;7.904;2023-07-29T07:17:15;8.90;;;1.90;;
10473;SDS011;5284;50.446;7.904;2023-07-29T07:22:18;12.35;;;1.88;;
10473;SDS011;5284;50.446;7.904;2023-07-29T07:27:21;2.80;;;1.45;;
10473;SDS011;5284;50.446;7.904;2023-07-29T07:32:25;4.70;;;1.58;;
10473;SDS011;5284;50.446;7.904;2023-07-29T07:37:29;5.13;;;1.50;;
10473;SDS011;5284;50.446;7.904;2023-07-29T07:42:32;1.67;;;0.90;;
10473;SDS011;5284;50.446;7.904;2023-07-29T07:47:38;2.35;;;1.10;;
10473;SDS011;5284;50.446;7.904;2023-07-29T07:52:41;2.55;;;1.40;;
10473;SDS011;5284;50.446;7.904;2023-07-29T07:57:43;8.13;;;1.40;;
10473;SDS011;5284;50.446;7.904;2023-07-29T08:02:49;2.67;;;1.00;;
10473;SDS011;5284;50.446;7.904;2023-07-29T08:07:52;2.10;;;0.98;;
10473;SDS011;5284;50.446;7.904;2023-07-29T08:12:55;3.28;;;1.65;;
10473;SDS011;5284;50.446;7.904;2023-07-29T08:17:59;1.90;;;1.30;;
10473;SDS011;5284;50.446;7.904;2023-07-29T08:23:02;3.10;;;1.13;;
10473;SDS011;5284;50.446;7.904;2023-07-29T08:28:05;2.60;;;1.20;;
10473;SDS011;5284;50.446;7.904;2023-07-29T08:33:11;2.22;;;0.95;;
10473;SDS011;5284;50.446;7.904;2023-07-29T08:38:14;1.85;;;1.15;;
10473;SDS011;5284;50.446;7.904;2023-07-29T08:43:18;1.27;;;0.95;;
10473;SDS011;5284;50.446;7.904;2023-07-29T08:48:26;1.33;;;0.93;;
10473;SDS011;5284;50.446;7.904;2023-07-29T08:53:39;2.58;;;1.08;;
10473;SDS011;5284;50.446;7.904;2023-07-29T08:58:42;5.95;;;1.00;;
10473;SDS011;5284;50.446;7.904;2023-07-29T09:03:47;2.20;;;1.08;;
10473;SDS011;5284;50.446;7.904;2023-07-29T09:08:51;1.35;;;0.90;;
10473;SDS011;5284;50.446;7.904;2023-07-29T09:13:59;4.10;;;1.17;;
10473;SDS011;5284;50.446;7.904;2023-07-29T09:19:04;1.85;;;0.95;;
10473;SDS011;5284;50.446;7.904;2023-07-29T09:24:07;1.30;;;0.90;;
10473;SDS011;5284;50.446;7.904;2023-07-29T09:29:11;1.92;;;1.02;;
10473;SDS011;5284;50.446;7.904;2023-07-29T09:34:15;3.70;;;1.10;;
10473;SDS011;5284;50.446;7.904;2023-07-29T09:39:19;11.95;;;1.25;;
10473;SDS011;5284;50.446;7.904;2023-07-29T09:44:25;5.10;;;0.98;;
10473;SDS011;5284;50.446;7.904;2023-07-29T09:49:29;2.33;;;1.02;;
10473;SDS011;5284;50.446;7.904;2023-07-29T09:54:37;1.90;;;0.98;;
10473;SDS011;5284;50.446;7.904;2023-07-29T09:59:41;2.45;;;0.80;;
10473;SDS011;5284;50.446;7.904;2023-07-29T10:04:46;16.15;;;1.35;;
10473;SDS011;5284;50.446;7.904;2023-07-29T10:09:50;2.42;;;1.40;;
10473;SDS011;5284;50.446;7.904;2023-07-29T10:14:55;4.03;;;1.65;;
10473;SDS011;5284;50.446;7.904;2023-07-29T10:20:05;2.97;;;1.17;;
10473;SDS011;5284;50.446;7.904;2023-07-29T10:25:13;2.08;;;1.40;;
10473;SDS011;5284;50.446;7.904;2023-07-29T10:30:20;5.00;;;1.02;;
10473;SDS011;5284;50.446;7.904;2023-07-29T10:35:33;7.30;;;1.67;;
10473;SDS011;5284;50.446;7.904;2023-07-29T10:40:43;1.92;;;1.17;;
10473;SDS011;5284;50.446;7.904;2023-07-29T10:45:47;4.47;;;1.25;;
10473;SDS011;5284;50.446;7.904;2023-07-29T10:56:27;3.88;;;1.20;;
10473;SDS011;5284;50.446;7.904;2023-07-29T11:01:31;7.10;;;1.20;;
10473;SDS011;5284;50.446;7.904;2023-07-29T11:06:43;11.48;;;1.00;;
10473;SDS011;5284;50.446;7.904;2023-07-29T11:12:05;4.80;;;1.60;;
10473;SDS011;5284;50.446;7.904;2023-07-29T11:17:08;2.75;;;1.27;;
10473;SDS011;5284;50.446;7.904;2023-07-29T11:22:14;4.03;;;1.58;;
10473;SDS011;5284;50.446;7.904;2023-07-29T11:27:18;2.55;;;1.20;;
10473;SDS011;5284;50.446;7.904;2023-07-29T11:32:21;4.40;;;1.45;;
10473;SDS011;5284;50.446;7.904;2023-07-29T11:37:25;3.10;;;1.90;;
10473;SDS011;5284;50.446;7.904;2023-07-29T11:42:30;1.95;;;0.93;;
10473;SDS011;5284;50.446;7.904;2023-07-29T11:47:34;6.77;;;1.93;;
10473;SDS011;5284;50.446;7.904;2023-07-29T11:52:40;5.38;;;1.67;;
10473;SDS011;5284;50.446;7.904;2023-07-29T11:57:44;3.10;;;1.15;;
10473;SDS011;5284;50.446;7.904;2023-07-29T12:02:54;10.48;;;1.25;;
10473;SDS011;5284;50.446;7.904;2023-07-29T12:08:00;5.78;;;1.35;;
10473;SDS011;5284;50.446;7.904;2023-07-29T12:13:04;3.17;;;1.45;;
10473;SDS011;5284;50.446;7.904;2023-07-29T12:18:10;2.67;;;1.30;;
10473;SDS011;5284;50.446;7.904;2023-07-29T12:23:16;3.25;;;1.38;;
10473;SDS011;5284;50.446;7.904;2023-07-29T12:28:26;2.95;;;1.33;;
10473;SDS011;5284;50.446;7.904;2023-07-29T12:33:29;4.47;;;1.00;;
10473;SDS011;5284;50.446;7.904;2023-07-29T12:38:34;14.20;;;1.63;;
10473;SDS011;5284;50.446;7.904;2023-07-29T12:43:39;2.13;;;1.20;;
10473;SDS011;5284;50.446;7.904;2023-07-29T12:48:42;1.42;;;1.00;;
10473;SDS011;5284;50.446;7.904;2023-07-29T12:53:47;2.22;;;1.50;;
10473;SDS011;5284;50.446;7.904;2023-07-29T12:58:51;7.97;;;1.83;;
10473;SDS011;5284;50.446;7.904;2023-07-29T13:03:55;15.45;;;2.78;;
10473;SDS011;5284;50.446;7.904;2023-07-29T13:08:59;24.02;;;3.25;;
10473;SDS011;5284;50.446;7.904;2023-07-29T13:14:02;11.52;;;2.50;;
10473;SDS011;5284;50.446;7.904;2023-07-29T13:19:05;12.02;;;2.25;;
10473;SDS011;5284;50.446;7.904;2023-07-29T13:24:10;14.73;;;2.00;;
10473;SDS011;5284;50.446;7.904;2023-07-29T13:29:13;3.75;;;1.77;;
10473;SDS011;5284;50.446;7.904;2023-07-29T13:34:17;4.65;;;1.13;;
10473;SDS011;5284;50.446;7.904;2023-07-29T13:39:21;8.88;;;1.30;;
10473;SDS011;5284;50.446;7.904;2023-07-29T13:44:23;2.03;;;1.23;;
10473;SDS011;5284;50.446;7.904;2023-07-29T13:49:28;1.98;;;1.08;;
10473;SDS011;5284;50.446;7.904;2023-07-29T13:54:32;5.68;;;1.73;;
10473;SDS011;5284;50.446;7.904;2023-07-29T13:59:36;3.97;;;1.70;;
10473;SDS011;5284;50.446;7.904;2023-07-29T14:04:42;9.68;;;1.58;;
10473;SDS011;5284;50.446;7.904;2023-07-29T14:09:46;2.22;;;1.30;;
10473;SDS011;5284;50.446;7.904;2023-07-29T14:14:49;3.88;;;1.40;;
10473;SDS011;5284;50.446;7.904;2023-07-29T14:19:52;2.25;;;1.40;;
10473;SDS011;5284;50.446;7.904;2023-07-29T14:24:56;3.42;;;1.73;;
10473;SDS011;5284;50.446;7.904;2023-07-29T14:30:01;6.38;;;1.83;;
10473;SDS011;5284;50.446;7.904;2023-07-29T14:35:05;4.90;;;1.90;;
10473;SDS011;5284;50.446;7.904;2023-07-29T14:40:11;3.53;;;1.67;;
10473;SDS011;5284;50.446;7.904;2023-07-29T14:45:15;5.00;;;1.92;;
10473;SDS011;5284;50.446;7.904;2023-07-29T14:50:18;2.90;;;1.42;;
10473;SDS011;5284;50.446;7.904;2023-07-29T14:55:23;1.83;;;1.42;;
10473;SDS011;5284;50.446;7.904;2023-07-29T15:00:28;3.55;;;1.70;;
10473;SDS011;5284;50.446;7.904;2023-07-29T15:05:31;2.70;;;1.30;;
10473;SDS011;5284;50.446;7.904;2023-07-29T15:10:35;8.15;;;1.38;;
10473;SDS011;5284;50.446;7.904;2023-07-29T15:20:43;2.03;;;0.90;;
10473;SDS011;5284;50.446;7.904;2023-07-29T15:25:47;1.55;;;1.00;;
10473;SDS011;5284;50.446;7.904;2023-07-29T15:30:52;1.92;;;1.08;;
10473;SDS011;5284;50.446;7.904;2023-07-29T15:35:56;1.48;;;0.70;;
10473;SDS011;5284;50.446;7.904;2023-07-29T15:41:01;2.53;;;1.00;;
10473;SDS011;5284;50.446;7.904;2023-07-29T15:46:03;3.78;;;0.82;;
10473;SDS011;5284;50.446;7.904;2023-07-29T15:51:06;3.67;;;1.02;;
10473;SDS011;5284;50.446;7.904;2023-07-29T15:56:12;1.70;;;0.65;;
10473;SDS011;5284;50.446;7.904;2023-07-29T16:01:14;2.75;;;1.13;;
10473;SDS011;5284;50.446;7.904;2023-07-29T16:06:18;2.97;;;0.70;;
10473;SDS011;5284;50.446;7.904;2023-07-29T16:11:22;6.88;;;0.90;;
10473;SDS011;5284;50.446;7.904;2023-07-29T16:16:28;1.27;;;1.10;;
10473;SDS011;5284;50.446;7.904;2023-07-29T16:21:31;1.93;;;0.77;;
10473;SDS011;5284;50.446;7.904;2023-07-29T16:26:36;2.63;;;0.88;;
10473;SDS011;5284;50.446;7.904;2023-07-29T16:31:39;1.60;;;0.98;;
10473;SDS011;5284;50.446;7.904;2023-07-29T16:36:42;4.50;;;2.13;;
10473;SDS011;5284;50.446;7.904;2023-07-29T16:41:46;1.40;;;0.93;;
10473;SDS011;5284;50.446;7.904;2023-07-29T16:46:52;1.45;;;0.90;;
10473;SDS011;5284;50.446;7.904;2023-07-29T16:51:55;4.47;;;1.00;;
10473;SDS011;5284;50.446;7.904;2023-07-29T16:56:59;0.98;;;0.82;;
10473;SDS011;5284;50.446;7.904;2023-07-29T17:02:02;5.90;;;1.30;;
10473;SDS011;5284;50.446;7.904;2023-07-29T17:07:09;3.45;;;0.88;;
10473;SDS011;5284;50.446;7.904;2023-07-29T17:12:15;1.98;;;0.90;;
10473;SDS011;5284;50.446;7.904;2023-07-29T17:17:19;1.90;;;1.02;;
10473;SDS011;5284;50.446;7.904;2023-07-29T17:22:22;2.15;;;1.35;;
10473;SDS011;5284;50.446;7.904;2023-07-29T17:27:27;2.00;;;1.00;;
10473;SDS011;5284;50.446;7.904;2023-07-29T17:32:30;2.33;;;1.38;;
10473;SDS011;5284;50.446;7.904;2023-07-29T17:37:34;5.88;;;1.17;;
10473;SDS011;5284;50.446;7.904;2023-07-29T17:42:39;2.00;;;1.15;;
10473;SDS011;5284;50.446;7.904;2023-07-29T17:47:42;2.10;;;1.10;;
10473;SDS011;5284;50.446;7.904;2023-07-29T17:52:45;9.32;;;1.63;;
10473;SDS011;5284;50.446;7.904;2023-07-29T17:57:49;5.93;;;1.98;;
10473;SDS011;5284;50.446;7.904;2023-07-29T18:02:52;5.35;;;1.73;;
10473;SDS011;5284;50.446;7.904;2023-07-29T18:07:57;4.30;;;1.52;;
10473;SDS011;5284;50.446;7.904;2023-07-29T18:13:02;3.60;;;2.13;;
10473;SDS011;5284;50.446;7.904;2023-07-29T18:18:09;9.95;;;2.10;;
10473;SDS011;5284;50.446;7.904;2023-07-29T18:23:12;5.78;;;2.05;;
10473;SDS011;5284;50.446;7.904;2023-07-29T18:28:17;7.38;;;2.10;;
10473;SDS011;5284;50.446;7.904;2023-07-29T18:33:20;3.22;;;2.03;;
10473;SDS011;5284;50.446;7.904;2023-07-29T18:38:23;4.43;;;2.03;;
10473;SDS011;5284;50.446;7.904;2023-07-29T18:43:27;2.58;;;1.75;;
10473;SDS011;5284;50.446;7.904;2023-07-29T18:48:30;2.85;;;1.35;;
10473;SDS011;5284;50.446;7.904;2023-07-29T18:53:33;4.03;;;1.83;;
10473;SDS011;5284;50.446;7.904;2023-07-29T18:58:39;3.83;;;1.80;;
10473;SDS011;5284;50.446;7.904;2023-07-29T19:03:42;4.13;;;1.60;;
10473;SDS011;5284;50.446;7.904;2023-07-29T19:08:46;4.75;;;1.70;;
10473;SDS011;5284;50.446;7.904;2023-07-29T19:13:52;5.78;;;2.60;;
10473;SDS011;5284;50.446;7.904;2023-07-29T19:18:55;4.15;;;2.22;;
10473;SDS011;5284;50.446;7.904;2023-07-29T19:23:59;6.60;;;2.22;;
10473;SDS011;5284;50.446;7.904;2023-07-29T19:29:03;3.10;;;1.60;;
10473;SDS011;5284;50.446;7.904;2023-07-29T19:34:06;4.60;;;2.00;;
10473;SDS011;5284;50.446;7.904;2023-07-29T19:39:10;6.05;;;1.98;;
10473;SDS011;5284;50.446;7.904;2023-07-29T19:44:14;4.05;;;2.08;;
10473;SDS011;5284;50.446;7.904;2023-07-29T19:49:23;6.22;;;2.60;;
10473;SDS011;5284;50.446;7.904;2023-07-29T19:54:27;8.30;;;1.98;;
10473;SDS011;5284;50.446;7.904;2023-07-29T19:59:33;6.55;;;2.17;;
10473;SDS011;5284;50.446;7.904;2023-07-29T20:04:49;6.93;;;1.90;;
10473;SDS011;5284;50.446;7.904;2023-07-29T20:09:52;4.35;;;2.10;;
10473;SDS011;5284;50.446;7.904;2023-07-29T20:14:56;4.15;;;2.05;;
10473;SDS011;5284;50.446;7.904;2023-07-29T20:20:02;4.07;;;1.65;;
10473;SDS011;5284;50.446;7.904;2023-07-29T20:25:07;3.95;;;2.05;;
10473;SDS011;5284;50.446;7.904;2023-07-29T20:30:11;2.55;;;1.50;;
10473;SDS011;5284;50.446;7.904;2023-07-29T20:35:15;6.18;;;1.70;;
10473;SDS011;5284;50.446;7.904;2023-07-29T20:40:18;11.18;;;1.67;;
10473;SDS011;5284;50.446;7.904;2023-07-29T20:45:23;5.43;;;1.88;;
10473;SDS011;5284;50.446;7.904;2023-07-29T20:50:27;3.13;;;1.75;;
10473;SDS011;5284;50.446;7.904;2023-07-29T20:55:30;7.20;;;1.98;;
10473;SDS011;5284;50.446;7.904;2023-07-29T21:00:36;7.78;;;1.63;;
10473;SDS011;5284;50.446;7.904;2023-07-29T21:05:39;11.63;;;2.15;;
10473;SDS011;5284;50.446;7.904;2023-07-29T21:10:48;4.95;;;1.35;;
10473;SDS011;5284;50.446;7.904;2023-07-29T21:15:54;4.38;;;2.08;;
10473;SDS011;5284;50.446;7.904;2023-07-29T21:20:58;3.80;;;1.70;;
10473;SDS011;5284;50.446;7.904;2023-07-29T21:26:01;2.38;;;1.60;;
10473;SDS011;5284;50.446;7.904;2023-07-29T21:31:10;3.85;;;1.65;;
10473;SDS011;5284;50.446;7.904;2023-07-29T21:36:19;2.28;;;1.48;;
10473;SDS011;5284;50.446;7.904;2023-07-29T21:41:22;2.75;;;1.40;;
10473;SDS011;5284;50.446;7.904;2023-07-29T21:46:28;3.65;;;1.70;;
10473;SDS011;5284;50.446;7.904;2023-07-29T21:51:31;4.65;;;1.30;;
10473;SDS011;5284;50.446;7.904;2023-07-29T21:56:34;13.43;;;1.52;;
10473;SDS011;5284;50.446;7.904;2023-07-29T22:01:38;10.63;;;1.58;;
10473;SDS011;5284;50.446;7.904;2023-07-29T22:06:41;9.45;;;1.92;;
10473;SDS011;5284;50.446;7.904;2023-07-29T22:11:46;11.07;;;1.40;;
10473;SDS011;5284;50.446;7.904;2023-07-29T22:16:50;6.97;;;1.60;;
10473;SDS011;5284;50.446;7.904;2023-07-29T22:21:53;8.77;;;1.50;;
10473;SDS011;5284;50.446;7.904;2023-07-29T22:26:58;7.78;;;1.75;;
10473;SDS011;5284;50.446;7.904;2023-07-29T22:32:02;6.25;;;1.52;;
10473;SDS011;5284;50.446;7.904;2023-07-29T22:37:08;9.18;;;1.85;;
10473;SDS011;5284;50.446;7.904;2023-07-29T22:42:11;11.13;;;1.23;;
10473;SDS011;5284;50.446;7.904;2023-07-29T22:47:17;17.98;;;1.92;;
10473;SDS011;5284;50.446;7.904;2023-07-29T22:52:19;6.05;;;1.13;;
10473;SDS011;5284;50.446;7.904;2023-07-29T22:57:23;8.57;;;1.58;;
10473;SDS011;5284;50.446;7.904;2023-07-29T23:02:27;4.28;;;1.80;;
10473;SDS011;5284;50.446;7.904;2023-07-29T23:07:31;5.35;;;1.63;;
10473;SDS011;5284;50.446;7.904;2023-07-29T23:12:34;7.22;;;1.40;;
10473;SDS011;5284;50.446;7.904;2023-07-29T23:17:39;14.43;;;2.05;;
10473;SDS011;5284;50.446;7.904;2023-07-29T23:22:43;5.15;;;1.70;;
10473;SDS011;5284;50.446;7.904;2023-07-29T23:27:47;4.53;;;1.98;;
10473;SDS011;5284;50.446;7.904;2023-07-29T23:32:54;7.18;;;1.65;;
10473;SDS011;5284;50.446;7.904;2023-07-29T23:37:57;3.42;;;1.40;;
10473;SDS011;5284;50.446;7.904;2023-07-29T23:43:01;4.60;;;1.45;;
10473;SDS011;5284;50.446;7.904;2023-07-29T23:48:05;3.83;;;1.80;;
10473;SDS011;5284;50.446;7.904;2023-07-29T23:53:09;3.10;;;1.30;;
10473;SDS011;5284;50.446;7.904;2023-07-29T23:58:11;2.35;;;1.83;;
